Time;durP1;ratioP1;P1;durP2;ratioP2;P2;SDS_P1;SDS_P2;PMS_P1;PMS_P2;Temp;Humidity;BMP_temperature;BMP_pressure;BME280_temperature;BME280_humidity;BME280_pressure;Samples;Min_cycle;Max_cycle;Signal;HPM_P1;HPM_P2
2022/07/11 00:00:10;;;;;;;4.85;2.58;;;;;;;20.35;61.53;99727.69;1754122;79;21067;-48
2022/07/11 00:02:39;;;;;;;5.10;2.67;;;;;;;20.32;61.64;99721.94;1750244;80;21078;-48
2022/07/11 00:05:08;;;;;;;6.35;2.62;;;;;;;20.26;61.71;99718.73;1753829;79;21115;-49
2022/07/11 00:07:36;;;;;;;7.87;2.98;;;;;;;20.21;61.94;99718.02;1761116;80;21525;-48
2022/07/11 00:10:04;;;;;;;3.98;2.20;;;;;;;20.15;62.14;99718.30;1751192;79;22035;-48
2022/07/11 00:12:31;;;;;;;6.22;2.60;;;;;;;20.15;62.28;99724.16;1752551;79;21090;-48
2022/07/11 00:14:58;;;;;;;4.83;2.70;;;;;;;20.11;62.40;99721.07;1752582;79;21110;-48
2022/07/11 00:17:26;;;;;;;4.70;2.30;;;;;;;20.02;62.75;99715.09;1750231;79;21135;-48
2022/07/11 00:19:52;;;;;;;4.90;2.25;;;;;;;19.95;62.99;99712.89;1753952;79;21094;-48
2022/07/11 00:22:20;;;;;;;4.75;2.50;;;;;;;19.92;63.08;99709.31;1754655;79;21187;-48
2022/07/11 00:24:47;;;;;;;5.87;2.50;;;;;;;19.90;63.16;99712.67;1753608;80;21513;-47
2022/07/11 00:27:15;;;;;;;4.58;3.00;;;;;;;19.85;63.18;99714.63;1753393;79;21634;-48
2022/07/11 00:29:42;;;;;;;5.97;2.83;;;;;;;19.83;63.35;99717.98;1751472;80;20959;-48
2022/07/11 00:32:09;;;;;;;4.28;2.27;;;;;;;19.85;63.26;99718.64;1759554;79;21569;-48
2022/07/11 00:34:37;;;;;;;4.33;2.37;;;;;;;19.84;63.17;99714.83;1749499;81;21208;-48
2022/07/11 00:37:04;;;;;;;4.58;2.65;;;;;;;19.78;63.30;99721.77;1750624;79;21522;-47
2022/07/11 00:39:31;;;;;;;6.30;2.85;;;;;;;19.77;63.32;99725.97;1749384;79;21102;-48
2022/07/11 00:41:58;;;;;;;5.33;2.45;;;;;;;19.76;63.21;99721.16;1748003;79;21082;-48
2022/07/11 00:44:24;;;;;;;4.85;2.55;;;;;;;19.71;63.25;99718.75;1755205;80;21015;-48
2022/07/11 00:46:50;;;;;;;4.75;2.35;;;;;;;19.67;63.34;99708.98;1753716;80;21285;-48
2022/07/11 00:49:17;;;;;;;4.12;2.02;;;;;;;19.70;63.31;99715.75;1756110;79;21090;-48
2022/07/11 00:51:44;;;;;;;4.47;2.37;;;;;;;19.74;63.24;99715.69;1755668;79;21114;-48
2022/07/11 00:54:11;;;;;;;4.90;2.30;;;;;;;19.74;63.23;99717.02;1752068;79;21063;-48
2022/07/11 00:56:37;;;;;;;7.50;2.75;;;;;;;19.66;63.40;99718.00;1757025;80;21348;-48
2022/07/11 00:59:04;;;;;;;4.40;2.30;;;;;;;19.63;63.53;99721.06;1754860;80;21363;-49
2022/07/11 01:01:32;;;;;;;4.10;2.17;;;;;;;19.57;63.59;99718.69;1755139;79;21066;-48
2022/07/11 01:03:59;;;;;;;6.28;2.87;;;;;;;19.54;63.56;99711.59;1751670;80;21004;-48
2022/07/11 01:06:25;;;;;;;4.70;2.42;;;;;;;19.48;63.60;99709.18;1758389;80;21063;-48
2022/07/11 01:08:53;;;;;;;6.15;2.42;;;;;;;19.47;63.65;99712.89;1757863;79;21047;-48
2022/07/11 01:11:19;;;;;;;5.78;2.72;;;;;;;19.52;63.60;99713.12;1756795;80;21135;-48
2022/07/11 01:13:46;;;;;;;5.00;2.83;;;;;;;19.53;63.33;99704.08;1751787;80;21019;-48
2022/07/11 01:16:16;;;;;;;4.85;2.50;;;;;;;19.51;63.30;99700.78;1756187;80;21038;-48
2022/07/11 01:18:45;;;;;;;5.37;2.40;;;;;;;19.48;63.34;99709.18;1759403;80;21067;-48
2022/07/11 01:21:34;;;;;;;6.72;3.22;;;;;;;19.42;63.29;99698.80;1758351;80;21695;-48
2022/07/11 01:24:01;;;;;;;5.95;2.80;;;;;;;19.32;63.39;99701.00;1758925;79;21143;-48
2022/07/11 01:26:29;;;;;;;4.90;2.60;;;;;;;19.26;63.54;99699.11;1761172;79;21573;-47
2022/07/11 01:28:59;;;;;;;5.75;3.00;;;;;;;19.22;63.57;99695.20;1753709;80;21070;-48
2022/07/11 01:31:26;;;;;;;4.85;2.72;;;;;;;19.25;63.37;99693.48;1720580;81;21097;-48
2022/07/11 01:33:53;;;;;;;4.08;2.33;;;;;;;19.23;63.32;99697.67;1761525;80;21308;-48
2022/07/11 01:36:19;;;;;;;6.87;3.17;;;;;;;19.19;63.41;99700.92;1768392;79;21129;-48
2022/07/11 01:38:46;;;;;;;5.87;2.80;;;;;;;19.15;63.50;99699.66;1752226;79;21050;-47
2022/07/11 01:41:12;;;;;;;6.40;2.72;;;;;;;19.09;63.55;99695.41;1763627;79;21054;-48
2022/07/11 01:43:39;;;;;;;5.72;3.05;;;;;;;19.05;63.63;99696.02;1753523;80;20992;-47
2022/07/11 01:46:05;;;;;;;5.28;2.55;;;;;;;19.05;63.65;99692.84;1758108;80;21329;-48
2022/07/11 01:48:32;;;;;;;4.65;2.72;;;;;;;19.08;63.51;99686.27;1758236;80;22050;-47
2022/07/11 01:50:59;;;;;;;6.55;2.87;;;;;;;19.06;63.50;99681.66;1756146;80;21494;-48
2022/07/11 01:53:25;;;;;;;6.42;2.60;;;;;;;18.98;63.64;99679.14;1759930;80;21474;-48
2022/07/11 01:55:52;;;;;;;5.72;2.67;;;;;;;18.92;63.77;99672.23;1747720;80;21514;-48
2022/07/11 01:58:18;;;;;;;5.15;2.95;;;;;;;18.91;63.84;99679.09;1737255;80;21073;-47
2022/07/11 02:00:45;;;;;;;6.45;2.65;;;;;;;18.89;63.79;99672.62;1736873;80;21101;-48
2022/07/11 02:03:11;;;;;;;4.65;2.25;;;;;;;18.90;63.77;99672.13;1744336;80;20999;-48
2022/07/11 02:05:39;;;;;;;4.78;2.60;;;;;;;18.94;63.67;99684.04;1740028;80;21560;-48
2022/07/11 02:08:13;;;;;;;4.85;2.10;;;;;;;18.98;63.69;99687.98;1738847;80;21433;-49
2022/07/11 02:10:43;;;;;;;4.78;2.37;;;;;;;19.01;63.61;99688.08;1745541;80;21117;-48
2022/07/11 02:13:12;;;;;;;5.70;2.37;;;;;;;19.01;63.39;99691.56;1747646;80;21782;-48
2022/07/11 02:15:39;;;;;;;4.47;2.27;;;;;;;19.00;63.30;99691.78;1738307;80;21081;-48
2022/07/11 02:18:06;;;;;;;5.62;2.52;;;;;;;18.99;63.38;99696.27;1746420;80;21046;-48
2022/07/11 02:20:32;;;;;;;4.92;2.47;;;;;;;18.97;63.47;99696.17;1742470;80;21114;-48
2022/07/11 02:23:00;;;;;;;5.03;2.30;;;;;;;19.02;63.37;99698.55;1745354;80;21054;-48
2022/07/11 02:25:27;;;;;;;7.25;2.55;;;;;;;19.05;63.24;99700.84;1742430;80;21128;-48
2022/07/11 02:27:53;;;;;;;4.20;2.27;;;;;;;19.06;63.24;99698.98;1743302;80;21055;-48
2022/07/11 02:30:20;;;;;;;5.17;2.27;;;;;;;19.04;63.20;99689.84;1741727;80;21423;-48
2022/07/11 02:32:47;;;;;;;4.90;2.67;;;;;;;19.02;63.27;99691.89;1738202;80;21075;-48
2022/07/11 02:35:14;;;;;;;3.98;2.00;;;;;;;18.99;63.34;99696.80;1738145;82;21054;-48
2022/07/11 02:37:40;;;;;;;6.17;2.20;;;;;;;18.98;63.39;99691.13;1738257;80;21836;-48
2022/07/11 02:40:08;;;;;;;4.70;2.22;;;;;;;18.98;63.38;99688.47;1738948;80;21549;-48
2022/07/11 02:42:35;;;;;;;5.05;2.58;;;;;;;19.01;63.35;99685.42;1740888;80;21067;-48
2022/07/11 02:45:04;;;;;;;5.67;2.20;;;;;;;19.01;63.46;99686.23;1740183;80;21102;-48
2022/07/11 02:47:31;;;;;;;3.92;2.05;;;;;;;19.01;63.55;99681.42;1740443;80;21090;-48
2022/07/11 02:49:58;;;;;;;5.00;2.47;;;;;;;18.99;63.56;99680.80;1739788;80;21130;-48
2022/07/11 02:52:25;;;;;;;5.20;2.37;;;;;;;18.95;63.67;99679.03;1747796;80;21361;-48
2022/07/11 02:54:51;;;;;;;5.97;2.50;;;;;;;18.91;63.82;99677.76;1742974;80;21353;-49
2022/07/11 02:57:17;;;;;;;4.50;2.02;;;;;;;18.91;63.96;99680.42;1760894;80;21734;-48
2022/07/11 02:59:44;;;;;;;5.28;2.40;;;;;;;18.94;63.86;99679.52;1754070;80;21620;-48
2022/07/11 03:02:11;;;;;;;5.03;2.22;;;;;;;18.91;64.12;99676.42;1752443;79;21141;-48
2022/07/11 03:04:37;;;;;;;4.90;2.35;;;;;;;18.86;64.32;99676.19;1757412;80;21047;-48
2022/07/11 03:07:05;;;;;;;4.37;2.22;;;;;;;18.82;64.45;99682.91;1764326;80;21126;-48
2022/07/11 03:09:31;;;;;;;5.15;2.55;;;;;;;18.78;64.67;99690.47;1761447;80;21034;-48
2022/07/11 03:11:58;;;;;;;4.45;2.40;;;;;;;18.81;64.72;99700.75;1761615;79;21058;-49
2022/07/11 03:14:26;;;;;;;5.20;2.60;;;;;;;18.84;64.63;99699.55;1761257;80;21102;-48
2022/07/11 03:16:52;;;;;;;4.90;2.60;;;;;;;18.86;64.56;99698.84;1754028;80;21066;-48
2022/07/11 03:19:19;;;;;;;5.22;2.90;;;;;;;18.80;64.55;99704.94;1759724;80;21043;-48
2022/07/11 03:21:45;;;;;;;5.70;2.85;;;;;;;18.71;64.83;99709.06;1757828;79;21086;-48
2022/07/11 03:24:12;;;;;;;4.92;2.52;;;;;;;18.64;64.99;99709.50;1754229;80;21103;-48
2022/07/11 03:26:38;;;;;;;4.35;2.15;;;;;;;18.57;65.25;99714.77;1759392;80;21106;-48
2022/07/11 03:29:07;;;;;;;4.42;2.33;;;;;;;18.55;65.24;99714.14;1765388;79;21027;-48
2022/07/11 03:31:34;;;;;;;4.20;2.22;;;;;;;18.56;65.16;99720.31;1760196;79;21526;-49
2022/07/11 03:34:01;;;;;;;5.35;2.40;;;;;;;18.53;65.28;99726.02;1757129;80;21085;-48
2022/07/11 03:36:27;;;;;;;5.87;2.42;;;;;;;18.49;65.51;99723.41;1761999;80;21379;-49
2022/07/11 03:38:54;;;;;;;4.92;2.60;;;;;;;18.50;65.71;99726.40;1759185;80;21132;-48
2022/07/11 03:41:20;;;;;;;5.67;2.83;;;;;;;18.54;65.52;99727.66;1755315;80;21102;-49
2022/07/11 03:43:47;;;;;;;5.45;2.55;;;;;;;18.53;65.64;99730.02;1756712;80;21486;-49
2022/07/11 03:46:14;;;;;;;6.10;2.80;;;;;;;18.52;65.68;99723.84;1760382;79;21133;-49
2022/07/11 03:48:41;;;;;;;5.05;2.47;;;;;;;18.56;65.58;99731.79;1754007;79;21066;-49
2022/07/11 03:51:08;;;;;;;5.70;2.90;;;;;;;18.60;65.65;99724.75;1753774;80;21841;-48
2022/07/11 03:53:34;;;;;;;5.15;2.70;;;;;;;18.66;65.77;99722.14;1755803;79;21102;-48
2022/07/11 03:56:01;;;;;;;6.00;3.00;;;;;;;18.72;65.82;99717.36;1755929;79;21089;-49
2022/07/11 03:58:27;;;;;;;7.28;3.20;;;;;;;18.83;65.69;99725.88;1761639;79;21153;-48
2022/07/11 04:00:54;;;;;;;6.33;2.62;;;;;;;18.89;65.47;99721.12;1758995;79;21116;-48
2022/07/11 04:03:21;;;;;;;4.45;2.40;;;;;;;18.93;65.01;99723.73;1762277;80;22008;-49
2022/07/11 04:05:47;;;;;;;4.55;2.60;;;;;;;18.94;64.89;99719.51;1768375;80;21121;-48
2022/07/11 04:21:31;;;;;;;5.65;3.22;;;;;;;19.74;62.81;99712.50;1839086;76;22048;-47
2022/07/11 04:23:57;;;;;;;7.62;3.45;;;;;;;19.86;62.17;99721.60;1849449;75;21066;-46
2022/07/11 04:26:24;;;;;;;6.60;3.45;;;;;;;19.87;61.73;99722.44;1847397;75;21127;-46
2022/07/11 04:28:51;;;;;;;7.22;4.20;;;;;;;19.73;61.86;99722.03;1847800;75;21000;-47
2022/07/11 04:31:17;;;;;;;6.92;4.53;;;;;;;19.53;62.03;99726.75;1843723;75;21004;-46
2022/07/11 04:33:44;;;;;;;10.18;6.05;;;;;;;19.30;62.41;99724.39;1850713;75;21383;-47
2022/07/11 04:36:10;;;;;;;11.65;7.22;;;;;;;19.14;62.59;99727.36;1843718;75;20973;-46
2022/07/11 04:38:37;;;;;;;16.70;8.58;;;;;;;18.93;63.00;99722.39;1846975;75;21114;-47
2022/07/11 04:41:04;;;;;;;13.22;9.28;;;;;;;18.74;63.50;99722.50;1838282;76;20958;-46
2022/07/11 04:43:31;;;;;;;14.20;9.05;;;;;;;18.63;63.73;99713.20;1843321;75;21509;-47
2022/07/11 04:45:57;;;;;;;12.68;9.43;;;;;;;18.61;63.80;99713.91;1842474;75;21077;-47
2022/07/11 04:48:24;;;;;;;13.03;9.85;;;;;;;18.60;63.89;99704.77;1842654;75;21072;-47
2022/07/11 04:50:51;;;;;;;15.55;9.75;;;;;;;18.59;64.06;99708.44;1848710;75;21722;-46
2022/07/11 04:53:17;;;;;;;18.20;10.68;;;;;;;18.61;64.12;99719.72;1810532;77;20995;-49
2022/07/11 04:55:44;;;;;;;16.70;11.03;;;;;;;18.61;64.36;99718.39;1838628;75;21104;-49
2022/07/11 04:58:11;;;;;;;19.00;10.50;;;;;;;18.57;64.62;99715.28;1838294;75;21097;-49
2022/07/11 05:00:38;;;;;;;14.35;10.28;;;;;;;18.58;64.81;99720.94;1841410;75;21053;-49
2022/07/11 05:03:04;;;;;;;19.42;11.33;;;;;;;18.61;64.62;99710.39;1844824;75;21132;-49
2022/07/11 05:05:31;;;;;;;14.78;10.95;;;;;;;18.60;64.59;99715.42;1838759;75;21054;-49
2022/07/11 05:07:58;;;;;;;16.90;11.33;;;;;;;18.59;64.73;99718.58;1841988;75;21350;-49
2022/07/11 05:10:25;;;;;;;17.42;11.50;;;;;;;18.60;64.83;99720.23;1847653;75;21026;-47
2022/07/11 05:12:52;;;;;;;21.80;12.80;;;;;;;18.62;64.79;99713.39;1843411;75;21057;-47
2022/07/11 05:15:20;;;;;;;21.45;13.10;;;;;;;18.58;64.54;99718.28;1839465;75;21081;-47
2022/07/11 05:17:47;;;;;;;17.07;11.73;;;;;;;18.52;64.79;99725.17;1832752;75;21068;-47
2022/07/11 05:20:14;;;;;;;20.43;13.28;;;;;;;18.51;64.89;99726.73;1843443;75;21041;-46
2022/07/11 05:22:41;;;;;;;21.07;13.90;;;;;;;18.52;64.85;99723.84;1846076;75;21113;-47
2022/07/11 05:25:08;;;;;;;23.95;15.18;;;;;;;18.55;64.94;99720.80;1853301;75;21029;-47
2022/07/11 05:27:35;;;;;;;21.15;14.53;;;;;;;18.59;64.94;99725.23;1844869;75;22762;-47
2022/07/11 05:30:01;;;;;;;24.02;15.95;;;;;;;18.64;64.86;99736.66;1803123;77;21490;-48
2022/07/11 05:32:28;;;;;;;25.05;15.65;;;;;;;18.63;64.64;99729.70;1805166;78;21026;-49
2022/07/11 05:35:02;;;;;;;25.23;14.38;;;;;;;18.62;64.62;99740.03;1813954;77;21097;-49
2022/07/11 05:37:24;;;;;;;23.10;14.68;;;;;;;18.63;64.70;99734.52;1778982;78;21102;-49
2022/07/11 05:39:51;;;;;;;19.87;14.23;;;;;;;18.68;64.61;99725.44;1808234;77;21650;-49
2022/07/11 05:42:17;;;;;;;25.50;15.38;;;;;;;18.75;64.51;99730.83;1812949;77;21058;-49
2022/07/11 05:44:44;;;;;;;22.52;15.38;;;;;;;18.80;64.42;99735.06;1791072;78;21046;-50
2022/07/11 05:47:12;;;;;;;18.57;14.07;;;;;;;18.89;64.27;99731.78;1788972;78;21053;-49
2022/07/11 05:49:39;;;;;;;22.07;14.68;;;;;;;19.00;63.97;99731.26;1780536;78;21099;-50
2022/07/11 05:52:08;;;;;;;21.25;13.03;;;;;;;19.08;63.83;99729.78;1788834;78;21291;-49
2022/07/11 05:54:35;;;;;;;20.35;13.62;;;;;;;19.20;63.40;99730.55;1789707;78;21081;-49
2022/07/11 05:57:03;;;;;;;23.02;13.25;;;;;;;19.32;63.01;99727.68;1788971;78;21164;-48
2022/07/11 05:59:30;;;;;;;22.05;14.15;;;;;;;19.37;63.03;99726.58;1785531;78;21049;-49
2022/07/11 06:01:57;;;;;;;17.32;13.25;;;;;;;19.47;62.82;99728.38;1783976;78;21137;-49
2022/07/11 06:04:23;;;;;;;18.55;11.25;;;;;;;19.55;62.54;99727.89;1791382;78;21130;-49
2022/07/11 06:06:50;;;;;;;16.15;11.35;;;;;;;19.60;62.55;99717.45;1787344;78;21168;-49
2022/07/11 06:09:17;;;;;;;16.70;11.70;;;;;;;19.70;62.44;99709.08;1787809;78;21068;-49
2022/07/11 06:11:43;;;;;;;16.65;11.55;;;;;;;19.80;61.88;99706.41;1786417;78;21062;-48
2022/07/11 06:14:10;;;;;;;16.57;12.45;;;;;;;19.84;61.67;99707.63;1789359;78;21097;-49
2022/07/11 06:16:36;;;;;;;18.23;11.83;;;;;;;19.88;61.90;99708.58;1791519;79;21125;-49
2022/07/11 06:19:03;;;;;;;18.48;11.95;;;;;;;19.92;61.77;99719.16;1796729;78;21042;-49
2022/07/11 06:21:29;;;;;;;15.78;10.43;;;;;;;19.92;61.33;99719.16;1787750;79;21053;-48
2022/07/11 06:23:56;;;;;;;15.30;11.20;;;;;;;19.95;61.43;99720.09;1785491;78;21080;-48
2022/07/11 06:26:22;;;;;;;19.60;11.75;;;;;;;20.01;61.27;99716.11;1786546;79;21069;-49
2022/07/11 06:28:49;;;;;;;14.33;10.63;;;;;;;20.03;61.12;99725.26;1784017;78;22359;-49
2022/07/11 06:31:16;;;;;;;16.42;11.18;;;;;;;20.06;61.59;99728.86;1780471;78;21560;-50
2022/07/11 06:33:43;;;;;;;18.12;10.38;;;;;;;20.09;60.99;99719.13;1788995;78;21529;-49
2022/07/11 06:36:09;;;;;;;15.23;10.60;;;;;;;20.09;60.63;99715.61;1789700;78;21057;-49
2022/07/11 06:38:35;;;;;;;17.73;10.08;;;;;;;20.16;60.69;99716.47;1787354;78;21140;-49
2022/07/11 06:41:02;;;;;;;14.18;9.78;;;;;;;20.22;60.71;99720.98;1784720;78;21129;-49
2022/07/11 06:43:29;;;;;;;18.85;9.65;;;;;;;20.29;61.09;99712.98;1787992;78;21559;-50
2022/07/11 06:45:57;;;;;;;13.28;8.15;;;;;;;20.35;60.49;99712.19;1808796;77;21509;-49
2022/07/11 06:48:25;;;;;;;12.78;8.68;;;;;;;20.40;59.87;99711.87;1814928;77;21591;-50
2022/07/11 06:50:52;;;;;;;15.38;8.48;;;;;;;20.46;59.96;99707.58;1817076;77;21090;-50
2022/07/11 06:53:18;;;;;;;11.53;7.40;;;;;;;20.54;60.03;99706.05;1813946;77;21117;-49
2022/07/11 06:55:45;;;;;;;15.10;8.45;;;;;;;20.68;59.14;99703.38;1778990;80;21097;-49
2022/07/11 06:58:12;;;;;;;13.13;7.58;;;;;;;20.76;58.86;99694.67;1783902;78;21364;-48
2022/07/11 07:00:39;;;;;;;13.05;8.08;;;;;;;20.83;58.54;99708.53;1782589;78;21081;-49
2022/07/11 07:03:05;;;;;;;12.00;7.35;;;;;;;20.89;57.97;99701.03;1805964;77;21405;-49
2022/07/11 07:05:32;;;;;;;13.03;7.72;;;;;;;20.95;58.28;99705.55;1809539;77;21117;-49
2022/07/11 07:07:58;;;;;;;12.30;7.03;;;;;;;21.03;58.52;99707.17;1803038;78;21090;-51
2022/07/11 07:10:25;;;;;;;12.05;7.08;;;;;;;21.05;57.88;99710.48;1800772;77;21089;-49
2022/07/11 07:12:52;;;;;;;11.75;6.62;;;;;;;21.10;58.31;99716.84;1808490;77;22351;-49
2022/07/11 07:15:18;;;;;;;10.95;6.33;;;;;;;21.19;57.79;99707.27;1801109;77;21057;-49
2022/07/11 07:17:45;;;;;;;11.60;6.12;;;;;;;21.22;57.49;99707.67;1829748;77;21358;-49
2022/07/11 07:20:12;;;;;;;11.18;7.22;;;;;;;21.22;57.64;99709.53;1810762;77;21037;-47
2022/07/11 07:22:40;;;;;;;12.47;6.97;;;;;;;21.22;57.51;99706.33;1783523;78;21058;-47
2022/07/11 07:25:08;;;;;;;9.10;6.00;;;;;;;21.26;57.67;99710.22;1788666;78;21050;-46
2022/07/11 07:27:35;;;;;;;11.93;6.80;;;;;;;21.31;57.66;99714.42;1790155;79;21081;-46
2022/07/11 07:30:03;;;;;;;13.03;7.05;;;;;;;21.38;57.72;99711.73;1785281;79;21080;-47
2022/07/11 07:32:30;;;;;;;8.88;5.65;;;;;;;21.51;57.61;99716.27;1784176;79;21114;-47
2022/07/11 07:34:57;;;;;;;8.75;6.00;;;;;;;21.65;58.09;99712.52;1757498;80;21041;-47
2022/07/11 07:37:23;;;;;;;12.93;5.55;;;;;;;21.75;57.78;99713.39;1770106;80;21068;-47
2022/07/11 07:39:50;;;;;;;9.25;5.53;;;;;;;21.83;57.41;99712.34;1774723;80;21143;-46
2022/07/11 07:42:17;;;;;;;9.20;5.53;;;;;;;21.89;56.16;99712.84;1773735;80;21694;-47
2022/07/11 07:44:44;;;;;;;7.78;5.10;;;;;;;21.96;56.82;99713.61;1789717;80;21514;-47
2022/07/11 07:47:10;;;;;;;9.88;5.37;;;;;;;22.03;56.93;99714.39;1777737;80;21018;-49
2022/07/11 07:49:37;;;;;;;9.50;4.90;;;;;;;22.08;56.09;99714.57;1777673;79;21049;-49
2022/07/11 07:52:04;;;;;;;7.40;4.33;;;;;;;22.11;56.67;99717.84;1775876;80;21038;-48
2022/07/11 07:54:30;;;;;;;7.15;3.92;;;;;;;22.13;55.89;99708.58;1771868;80;21117;-49
2022/07/11 07:56:57;;;;;;;8.33;3.58;;;;;;;22.15;55.07;99709.70;1770085;79;21030;-49
2022/07/11 07:59:24;;;;;;;7.15;3.20;;;;;;;22.16;55.70;99714.03;1774206;80;21093;-49
2022/07/11 08:01:52;;;;;;;4.95;2.70;;;;;;;22.19;55.36;99710.90;1773124;80;21104;-49
2022/07/11 08:04:19;;;;;;;4.10;2.10;;;;;;;22.23;54.25;99704.91;1802088;78;21505;-49
2022/07/11 08:06:45;;;;;;;5.03;2.33;;;;;;;22.24;54.13;99711.08;1782782;79;21133;-49
2022/07/11 08:09:12;;;;;;;4.65;2.30;;;;;;;22.26;54.42;99705.00;1786004;78;21057;-48
2022/07/11 08:11:39;;;;;;;5.37;2.80;;;;;;;22.28;53.47;99704.30;1788221;78;21006;-49
2022/07/11 08:14:07;;;;;;;5.55;1.95;;;;;;;22.28;53.88;99701.61;1794531;78;20967;-49
2022/07/11 08:16:35;;;;;;;5.22;2.17;;;;;;;22.30;53.48;99706.23;1776686;79;21077;-48
2022/07/11 08:19:03;;;;;;;4.20;2.22;;;;;;;22.29;53.38;99705.92;1773124;80;21882;-49
2022/07/11 08:21:30;;;;;;;4.58;2.10;;;;;;;22.29;53.63;99705.10;1772430;79;21038;-48
2022/07/11 08:23:57;;;;;;;5.17;2.20;;;;;;;22.30;52.70;99710.25;1764306;79;21102;-48
2022/07/11 08:26:23;;;;;;;4.42;1.95;;;;;;;22.33;52.88;99700.97;1778178;79;20990;-49
2022/07/11 08:28:51;;;;;;;4.42;2.20;;;;;;;22.33;52.71;99704.46;1759173;79;21073;-48
2022/07/11 08:31:18;;;;;;;4.12;2.22;;;;;;;22.34;53.07;99714.16;1756701;79;21129;-48
2022/07/11 08:33:45;;;;;;;3.98;2.10;;;;;;;22.32;52.27;99713.53;1763491;79;20989;-48
2022/07/11 08:36:12;;;;;;;5.28;2.20;;;;;;;22.34;52.91;99716.84;1780015;79;20990;-49
2022/07/11 08:38:39;;;;;;;4.90;2.05;;;;;;;22.36;52.55;99713.41;1789095;79;21093;-48
2022/07/11 08:41:06;;;;;;;4.78;1.90;;;;;;;22.40;51.97;99711.93;1768076;79;21185;-48
2022/07/11 08:43:32;;;;;;;4.75;2.22;;;;;;;22.43;51.84;99715.52;1780515;79;21136;-46
2022/07/11 08:46:01;;;;;;;4.05;2.05;;;;;;;22.46;51.81;99718.30;1768780;80;20998;-47
2022/07/11 08:48:28;;;;;;;4.37;2.00;;;;;;;22.49;52.47;99715.69;1766884;79;21102;-49
2022/07/11 08:50:55;;;;;;;4.87;2.62;;;;;;;22.52;52.29;99724.12;1766549;80;21081;-47
2022/07/11 08:53:22;;;;;;;4.47;2.12;;;;;;;22.54;51.54;99719.87;1761939;80;21078;-48
2022/07/11 08:55:49;;;;;;;4.97;2.50;;;;;;;22.54;51.99;99722.56;1767602;79;21281;-48
2022/07/11 08:58:16;;;;;;;4.95;2.15;;;;;;;22.49;51.65;99717.84;1768790;80;20998;-47
2022/07/11 09:00:43;;;;;;;5.47;1.85;;;;;;;22.47;51.21;99723.95;1762207;79;21527;-48
2022/07/11 09:03:14;;;;;;;5.35;2.42;;;;;;;22.52;52.12;99721.44;1772353;79;21083;-48
2022/07/11 09:05:41;;;;;;;7.05;2.55;;;;;;;22.57;52.08;99719.45;1764370;79;21003;-48
2022/07/11 09:08:08;;;;;;;3.83;2.12;;;;;;;22.62;50.94;99715.59;1768697;80;21276;-48
2022/07/11 09:10:37;;;;;;;4.15;2.10;;;;;;;22.66;50.50;99722.15;1784008;78;21073;-48
2022/07/11 09:13:10;;;;;;;4.92;1.95;;;;;;;22.67;51.35;99726.48;1759200;79;21506;-47
2022/07/11 09:15:47;;;;;;;7.30;2.12;;;;;;;22.71;51.47;99721.00;1779161;79;21053;-47
2022/07/11 09:18:38;;;;;;;6.40;2.20;;;;;;;22.74;50.20;99717.05;1772665;79;21040;-48
2022/07/11 09:26:48;;;;;;;4.40;1.80;;;;;;;22.73;50.09;99710.87;1797725;79;21061;-48
2022/07/11 09:29:18;;;;;;;3.65;1.80;;;;;;;22.76;49.46;99708.25;1792446;78;21058;-48
2022/07/11 09:31:45;;;;;;;5.58;2.00;;;;;;;22.80;50.46;99707.60;1791158;79;21017;-47
2022/07/11 09:34:17;;;;;;;5.00;1.80;;;;;;;22.87;50.59;99704.86;1786814;79;21142;-48
2022/07/11 09:36:51;;;;;;;4.25;1.80;;;;;;;22.90;49.91;99707.11;1790665;78;21117;-48
2022/07/11 09:39:21;;;;;;;4.65;2.00;;;;;;;22.95;50.26;99701.09;1783024;78;21093;-48
2022/07/11 09:41:51;;;;;;;4.62;1.80;;;;;;;23.01;51.00;99696.16;1810261;77;21335;-48
2022/07/11 09:44:20;;;;;;;3.27;1.50;;;;;;;23.08;49.63;99692.95;1806967;77;21666;-47
2022/07/11 09:46:49;;;;;;;5.00;2.08;;;;;;;23.12;48.61;99695.47;1794810;79;21130;-49
2022/07/11 09:49:19;;;;;;;3.42;1.65;;;;;;;23.14;48.75;99693.91;1794469;78;21521;-49
2022/07/11 09:51:46;;;;;;;5.90;2.10;;;;;;;23.17;49.78;99690.26;1784009;79;21126;-48
2022/07/11 09:54:12;;;;;;;4.50;1.60;;;;;;;23.23;48.96;99685.05;1795572;78;21124;-48
2022/07/11 09:56:45;;;;;;;4.28;1.60;;;;;;;23.32;48.46;99685.06;1780364;79;21105;-48
2022/07/11 09:59:13;;;;;;;4.90;1.70;;;;;;;23.38;47.55;99680.12;1788185;78;23149;-48
2022/07/11 10:01:40;;;;;;;5.75;1.80;;;;;;;23.44;46.94;99682.45;1785994;79;21094;-48
2022/07/11 10:04:07;;;;;;;4.85;1.72;;;;;;;23.49;47.43;99686.09;1811057;78;21434;-48
2022/07/11 10:06:36;;;;;;;5.92;2.25;;;;;;;23.60;47.81;99684.50;1812349;78;21034;-48
2022/07/11 10:09:09;;;;;;;3.55;1.60;;;;;;;23.73;47.24;99675.47;1780077;78;21070;-49
2022/07/11 10:11:33;;;;;;;3.80;1.82;;;;;;;23.85;48.01;99684.42;1772385;78;21175;-47
2022/07/11 10:14:01;;;;;;;4.92;1.90;;;;;;;23.96;46.37;99677.47;1786147;78;21057;-48
2022/07/11 10:16:58;;;;;;;4.67;2.20;;;;;;;24.05;46.05;99681.98;1753363;79;21089;-48
2022/07/11 10:19:43;;;;;;;5.12;1.85;;;;;;;24.12;46.59;99678.67;1788592;78;21097;-48
2022/07/11 10:22:37;;;;;;;3.40;1.75;;;;;;;24.22;45.99;99678.12;1770749;80;21526;-47
2022/07/11 10:25:21;;;;;;;3.50;1.60;;;;;;;24.24;45.30;99667.45;1758948;78;21259;-49
2022/07/11 10:27:58;;;;;;;3.52;1.50;;;;;;;24.33;46.37;99667.94;1804183;78;20991;-47
2022/07/11 10:30:48;;;;;;;5.03;1.82;;;;;;;24.42;45.44;99671.09;1813857;78;21097;-48
2022/07/11 10:33:15;;;;;;;4.53;1.92;;;;;;;24.43;45.54;99682.97;1814381;77;21042;-48
2022/07/11 10:35:45;;;;;;;3.47;1.72;;;;;;;24.35;45.53;99675.23;1815393;78;21576;-47
2022/07/11 10:38:11;;;;;;;6.50;1.90;;;;;;;24.26;45.69;99672.60;1809528;77;21038;-49
2022/07/11 10:40:56;;;;;;;4.42;1.55;;;;;;;24.16;45.89;99679.88;1818735;77;21636;-48
2022/07/11 10:43:36;;;;;;;4.40;1.47;;;;;;;24.09;45.88;99669.72;1779014;80;21109;-48
2022/07/11 10:46:07;;;;;;;5.08;1.90;;;;;;;24.01;46.43;99672.23;1790502;78;21209;-48
2022/07/11 10:48:52;;;;;;;6.30;2.15;;;;;;;23.97;46.52;99665.66;1816144;78;21061;-48
2022/07/11 10:51:27;;;;;;;5.65;1.95;;;;;;;23.88;45.65;99667.03;1816736;77;21362;-48
2022/07/11 10:53:53;;;;;;;4.83;2.30;;;;;;;23.81;46.39;99673.00;1813906;77;21542;-48
2022/07/11 10:57:07;;;;;;;4.83;2.00;;;;;;;23.76;46.40;99676.89;1778423;78;21366;-48
2022/07/11 10:59:34;;;;;;;4.75;2.00;;;;;;;23.71;46.15;99677.56;1770044;80;21054;-48
2022/07/11 11:02:11;;;;;;;3.70;1.70;;;;;;;23.68;46.26;99678.02;1785726;78;21026;-48
2022/07/11 11:04:46;;;;;;;6.28;1.67;;;;;;;23.68;46.84;99682.84;1796349;78;22062;-49
2022/07/11 11:07:43;;;;;;;6.12;3.02;;;;;;;23.73;47.25;99680.84;1814181;77;21070;-48
2022/07/11 11:10:38;;;;;;;10.55;4.67;;;;;;;23.82;46.88;99688.08;1815530;78;21023;-48
2022/07/11 11:13:10;;;;;;;8.45;4.35;;;;;;;23.86;46.80;99696.81;1811360;78;22242;-47
2022/07/11 11:15:54;;;;;;;8.88;5.20;;;;;;;23.78;47.60;99680.97;1806700;77;21054;-47
2022/07/11 11:18:34;;;;;;;8.95;5.47;;;;;;;23.68;47.84;99688.75;1776138;80;21237;-47
2022/07/11 11:21:09;;;;;;;9.35;4.92;;;;;;;23.57;47.85;99691.69;1790407;78;21667;-47
2022/07/11 11:23:40;;;;;;;;;;;;;;;23.49;46.75;99688.77;1791607;78;21030;-47
2022/07/11 11:26:11;;;;;;;11.88;4.20;;;;;;;23.43;47.08;99701.74;1779078;79;20129;-48
2022/07/11 11:28:40;;;;;;;8.85;3.83;;;;;;;23.40;47.19;99703.52;1783748;78;21121;-47
2022/07/11 11:31:07;;;;;;;7.67;4.25;;;;;;;23.36;46.83;99709.87;1774477;78;21085;-47
2022/07/11 11:33:36;;;;;;;6.97;3.95;;;;;;;23.28;47.13;99708.00;1782612;78;21095;-48
2022/07/11 11:36:09;;;;;;;6.97;3.35;;;;;;;23.18;47.70;99703.14;1780499;78;21053;-48
2022/07/11 11:38:38;;;;;;;5.92;3.72;;;;;;;23.06;48.48;99714.29;1781021;79;21054;-48
2022/07/11 11:41:05;;;;;;;9.20;3.70;;;;;;;22.98;48.57;99713.54;1785826;78;21084;-47
2022/07/11 11:43:33;;;;;;;8.63;3.33;;;;;;;22.88;48.90;99715.91;1780055;78;21076;-47
2022/07/11 11:46:01;;;;;;;5.42;2.98;;;;;;;22.85;49.20;99712.81;1776086;78;20999;-46
2022/07/11 11:48:31;;;;;;;6.55;2.75;;;;;;;22.82;48.66;99716.25;1778222;78;21081;-47
2022/07/11 11:51:16;;;;;;;6.08;2.98;;;;;;;22.84;48.78;99716.55;1785280;78;21571;-47
2022/07/11 11:53:49;;;;;;;6.75;3.40;;;;;;;22.85;48.11;99715.00;1776496;78;21062;-48